x

Venice, Fl (venf1) Weather Station

9:00pm - Tue 22nd Jan 2019 All times are EST. -5 hours from GMT.

  • Wind
    9mph, 11mph gusts
  • Sea Temp 63°f
  • Air Temp 66°f
  • Sea Pressure 1026.1mb
  • Venice, Fl
  • Venice, Fl

More Historic Weather Station data

Upgrade to MSW Pro to gain access to the past 30 days of data for over 8000 Wavebouys and Weather Stations around the globe.

Join

Comparision Forecast

View Surf forecast
   
Tue 01/22 9:00pm 9 11 mph 1026.1mb 63f 66f
8:00pm 10 13 mph 1026mb 63f 67f
7:00pm 11 14 mph 1025.6mb 63f 69f
6:00pm 13 16 mph 1025.3mb 63f 71f
5:00pm 14 18 mph 1024.9mb 63f 73f
4:00pm 15 21 mph 1025mb 63f 74f
3:00pm 15 22 mph 1025.2mb 63f 73f
2:00pm 15 21 mph 1025.7mb 63f 74f
1:00pm 14 21 mph 1026.7mb 63f 73f
12:00pm 13 17 mph 1027.5mb 63f 71f
11:00am 15 17 mph 1028.1mb 63f 68f
10:00am 11 15 mph 1028.1mb 63f 64f
9:00am 8 13 mph 1027.5mb 63f 58f
8:00am 9 13 mph 1027.1mb 62f 52f
7:00am 8 10 mph 1026.6mb 63f 49f
6:00am 8 11 mph 1026.5mb 63f 49f
5:00am 9 10 mph 1025.8mb 63f 49f
4:00am 10 11 mph 1025.8mb 63f 49f
3:00am 10 14 mph 1026mb 63f 49f
2:00am 10 14 mph 1026.3mb 63f 49f
1:00am 11 15 mph 1026.5mb 63f 49f
12:00am 9 13 mph 1028.9mb 63f 50f
Mon 01/21 11:00pm 11 14 mph 1027.5mb 63f 51f
10:00pm 10 13 mph 1027.6mb 63f 53f
9:00pm 8 11 mph 1027.7mb 63f 55f
8:00pm 5 6 mph 1026.7mb 63f 58f
7:00pm 2 2 mph 1026.5mb 63f 58f
6:00pm 8 8 mph 1026.5mb 63f 57f
5:00pm 6 7 mph 1025.6mb 63f 58f
4:00pm 8 9 mph 1028.8mb 63f 57f
3:00pm 10 13 mph 1024.6mb 63f 57f
2:00pm 9 10 mph 1024.9mb 63f 58f
1:00pm 8 9 mph 1026mb 63f 57f
12:00pm 7 8 mph 1029.1mb 63f 54f
11:00am 9 13 mph 1026.4mb 62f 50f
10:00am 9 11 mph 1026mb 62f 46f
9:00am 10 15 mph 1025.5mb 62f 44f
8:00am 13 18 mph 1024.9mb 62f 42f
7:00am 7 11 mph 1024.4mb 62f 42f
6:00am 7 8 mph 1023.7mb 62f 43f
5:00am 7 8 mph 1023.2mb 62f 44f
4:00am 9 13 mph 1023.3mb 63f 47f
3:00am 13 17 mph 1022.8mb 63f 50f
2:00am 11 16 mph 1022.6mb 63f 51f
1:00am 8 10 mph 1022.4mb 63f 51f
12:00am 10 14 mph 1022.4mb 63f 53f
Sun 01/20 11:00pm 20 24 mph 1022.2mb 63f 54f
10:00pm 18 21 mph 1021.2mb 64f 55f
9:00pm 28 32 mph 1020.9mb 64f 56f
8:00pm 24 28 mph 1019.3mb 64f 56f
7:00pm 23 26 mph 1018.5mb 64f 56f
6:00pm 30 33 mph 1017.9mb 64f 57f
5:00pm 29 33 mph 1017.1mb 64f 58f
4:00pm 30 32 mph 1016.3mb 64f 59f
3:00pm 32 38 mph 1016mb 64f 60f
2:00pm 32 37 mph 1015.8mb 65f 59f
1:00pm 29 32 mph 1015.9mb 64f 62f
12:00pm 33 38 mph 1015.9mb 64f 63f
11:00am 28 31 mph 1015.5mb 65f 64f
10:00am 26 30 mph 1014.6mb 65f 64f
9:00am 29 32 mph 1014mb 66f 64f
8:00am 29 33 mph 1012.8mb 67f 65f
7:00am 26 30 mph 1011.7mb 67f 66f
6:00am 23 28 mph 1011.1mb 67f 66f
5:00am 25 26 mph 1010.2mb 67f 66f
4:00am 23 26 mph 1009.5mb 67f 67f
3:00am 20 22 mph 1009.5mb 67f 66f
2:00am 22 24 mph 1010.2mb 67f 68f
1:00am 21 22 mph 1010.7mb 67f 67f
12:00am 20 22 mph 1011.3mb 67f 67f
Sat 01/19 11:00pm 18 21 mph 1012.1mb 67f 67f
10:00pm 20 21 mph 1012.1mb 67f 67f
9:00pm 18 20 mph 1012.8mb 67f 67f
8:00pm 17 20 mph 1013mb 67f 67f
7:00pm 16 20 mph 1013.2mb 67f 67f
6:00pm 16 18 mph 1013.5mb 67f 68f
5:00pm 17 18 mph 1013.5mb 67f 68f
4:00pm 17 18 mph 1013.7mb 67f 68f
3:00pm 20 21 mph 1014.2mb 67f 68f
2:00pm 16 17 mph 1014.6mb 67f 67f
1:00pm 16 17 mph 1016.3mb 67f 69f
12:00pm 16 17 mph 1017.2mb 66f 68f
11:00am 15 17 mph 1017.8mb 66f 68f
10:00am 14 17 mph 1018mb 66f 68f
9:00am 7 9 mph 1017.9mb 66f 66f
8:00am 5 7 mph 1017.4mb 66f 59f
7:00am 7 9 mph 1017.1mb 66f 58f
6:00am 8 9 mph 1018.1mb 66f 57f
5:00am 5 5 mph 1017.6mb 66f 55f
4:00am 2 3 mph 1018mb 66f 55f